Time,TemperatureF,DewpointF,PressureIn,WindDirection,WindDirectionDegrees,WindSpeedMPH,WindSpeedGustMPH,Humidity,HourlyPrecipIn,Conditions,Clouds,dailyrainin,SoftwareType,DateUTC
2013-01-08 00:03:00,25.0,17.2,29.95,West,270,2.0,3.0,72,0.00,,,0.00,meteohub,2013-01-08 06:03:00,
2013-01-08 00:08:00,25.0,17.6,29.95,West,270,3.0,3.0,73,0.00,,,0.00,meteohub,2013-01-08 06:08:00,
2013-01-08 00:13:00,25.0,17.6,29.95,NW,315,3.0,4.0,73,0.00,,,0.00,meteohub,2013-01-08 06:13:00,
2013-01-08 00:18:00,25.2,18.0,29.95,West,270,3.0,4.0,74,0.00,,,0.00,meteohub,2013-01-08 06:18:00,
2013-01-08 00:23:00,25.3,18.1,29.95,West,270,2.0,4.0,74,0.00,,,0.00,meteohub,2013-01-08 06:23:00,
2013-01-08 00:28:00,25.3,18.1,29.95,West,270,3.0,4.0,74,0.00,,,0.00,meteohub,2013-01-08 06:28:00,
2013-01-08 00:33:00,25.3,18.1,29.95,West,270,2.0,4.0,74,0.00,,,0.00,meteohub,2013-01-08 06:33:00,
2013-01-08 00:38:00,25.2,18.0,29.95,NW,315,3.0,4.0,74,0.00,,,0.00,meteohub,2013-01-08 06:38:00,
2013-01-08 00:43:00,25.2,18.0,29.95,NW,315,2.0,3.0,74,0.00,,,0.00,meteohub,2013-01-08 06:43:00,
2013-01-08 00:48:00,25.0,18.0,29.95,West,270,2.0,3.0,74,0.00,,,0.00,meteohub,2013-01-08 06:48:00,
2013-01-08 00:54:00,24.8,17.8,29.96,West,270,0.0,3.0,74,0.00,,,0.00,meteohub,2013-01-08 06:54:00,
2013-01-08 00:59:00,24.4,17.6,29.95,West,270,0.0,3.0,75,0.00,,,0.00,meteohub,2013-01-08 06:59:00,
2013-01-08 01:04:00,24.3,17.2,29.95,SW,225,1.0,2.0,74,0.00,,,0.00,meteohub,2013-01-08 07:04:00,
2013-01-08 01:09:00,24.1,17.1,29.95,SW,225,0.0,2.0,74,0.00,,,0.00,meteohub,2013-01-08 07:09:00,
2013-01-08 01:14:00,11.3,4.3,29.99,East,90,3.0,3.0,73,0.00,,,0.00,meteohub,2013-01-08 07:14:00,
2013-01-08 01:19:00,23.7,16.7,29.95,SW,225,1.0,1.0,74,0.00,,,0.00,meteohub,2013-01-08 07:19:00,
2013-01-08 01:24:00,23.7,16.7,29.95,SW,225,0.0,3.0,74,0.00,,,0.00,meteohub,2013-01-08 07:24:00,
2013-01-08 01:29:00,23.4,16.3,29.95,SW,225,0.0,3.0,74,0.00,,,0.00,meteohub,2013-01-08 07:29:00,
2013-01-08 01:34:00,22.8,16.2,29.95,East,90,0.0,1.0,75,0.00,,,0.00,meteohub,2013-01-08 07:34:00,
2013-01-08 01:39:00,22.6,16.0,29.96,East,90,0.0,0.0,75,0.00,,,0.00,meteohub,2013-01-08 07:39:00,
2013-01-08 01:44:00,22.5,15.8,29.96,SSE,158,0.0,4.0,75,0.00,,,0.00,meteohub,2013-01-08 07:44:00,
2013-01-08 01:49:00,22.3,15.6,29.95,SE,135,1.0,4.0,75,0.00,,,0.00,meteohub,2013-01-08 07:49:00,
2013-01-08 01:54:00,22.1,15.4,29.96,SE,135,0.0,4.0,75,0.00,,,0.00,meteohub,2013-01-08 07:54:00,
2013-01-08 01:59:00,22.1,15.4,29.95,SE,135,0.0,1.0,75,0.00,,,0.00,meteohub,2013-01-08 07:59:00,
2013-01-08 02:04:00,22.1,15.4,29.96,NW,315,1.0,1.0,75,0.00,,,0.00,meteohub,2013-01-08 08:04:00,
2013-01-08 02:09:00,22.5,15.8,29.95,West,270,2.0,3.0,75,0.00,,,0.00,meteohub,2013-01-08 08:09:00,
2013-01-08 02:14:00,22.5,16.0,29.95,West,270,0.0,3.0,76,0.00,,,0.00,meteohub,2013-01-08 08:14:00,
2013-01-08 02:19:00,22.5,16.0,29.96,West,270,0.0,2.0,76,0.00,,,0.00,meteohub,2013-01-08 08:19:00,
2013-01-08 02:24:00,21.9,15.4,29.95,SE,135,1.0,2.0,76,0.00,,,0.00,meteohub,2013-01-08 08:24:00,
2013-01-08 02:29:00,21.9,15.4,29.95,SE,135,0.0,2.0,76,0.00,,,0.00,meteohub,2013-01-08 08:29:00,
2013-01-08 02:34:00,21.9,15.4,29.95,SE,135,0.0,1.0,76,0.00,,,0.00,meteohub,2013-01-08 08:34:00,
2013-01-08 02:39:00,21.9,15.4,29.96,SE,135,0.0,1.0,76,0.00,,,0.00,meteohub,2013-01-08 08:39:00,
2013-01-08 02:44:00,21.6,15.3,29.95,East,90,1.0,1.0,76,0.00,,,0.00,meteohub,2013-01-08 08:44:00,
2013-01-08 02:49:00,21.4,15.1,29.95,East,90,2.0,2.0,76,0.00,,,0.00,meteohub,2013-01-08 08:49:00,
2013-01-08 02:54:00,21.2,14.9,29.95,East,90,2.0,2.0,76,0.00,,,0.00,meteohub,2013-01-08 08:54:00,
2013-01-08 02:59:00,21.4,15.3,29.94,East,90,2.0,2.0,77,0.00,,,0.00,meteohub,2013-01-08 08:59:00,
2013-01-08 03:04:00,21.6,15.4,29.95,East,90,2.0,2.0,77,0.00,,,0.00,meteohub,2013-01-08 09:04:00,
2013-01-08 03:09:00,21.4,15.3,29.95,East,90,2.0,2.0,77,0.00,,,0.00,meteohub,2013-01-08 09:09:00,
2013-01-08 03:14:00,21.2,15.4,29.95,East,90,2.0,3.0,78,0.00,,,0.00,meteohub,2013-01-08 09:14:00,
2013-01-08 03:19:00,21.2,15.4,29.95,East,90,2.0,3.0,78,0.00,,,0.00,meteohub,2013-01-08 09:19:00,
2013-01-08 03:24:00,21.0,15.6,29.95,East,90,2.0,2.0,79,0.00,,,0.00,meteohub,2013-01-08 09:24:00,
2013-01-08 03:29:00,21.0,15.8,29.95,East,90,2.0,2.0,80,0.00,,,0.00,meteohub,2013-01-08 09:29:00,
2013-01-08 03:35:00,21.2,15.8,29.95,East,90,2.0,2.0,79,0.00,,,0.00,meteohub,2013-01-08 09:35:00,
2013-01-08 03:40:00,21.2,15.8,29.94,ESE,113,3.0,3.0,79,0.00,,,0.00,meteohub,2013-01-08 09:40:00,
2013-01-08 03:45:00,21.2,16.0,29.94,East,90,3.0,3.0,80,0.00,,,0.00,meteohub,2013-01-08 09:45:00,
2013-01-08 03:50:00,21.0,16.2,29.94,East,90,2.0,3.0,81,0.00,,,0.00,meteohub,2013-01-08 09:50:00,
2013-01-08 03:55:00,20.8,16.0,29.94,South,180,2.0,3.0,81,0.00,,,0.00,meteohub,2013-01-08 09:55:00,
2013-01-08 04:00:00,20.7,15.8,29.94,East,90,4.0,4.0,81,0.00,,,0.00,meteohub,2013-01-08 10:00:00,
2013-01-08 04:05:00,20.7,15.8,29.94,East,90,4.0,4.0,81,0.00,,,0.00,meteohub,2013-01-08 10:05:00,
2013-01-08 04:10:00,10.9,3.7,29.94,West,270,1.0,4.0,72,0.00,,,0.00,meteohub,2013-01-08 10:10:00,
2013-01-08 04:15:00,20.1,15.3,29.93,SE,135,2.0,4.0,81,0.00,,,0.00,meteohub,2013-01-08 10:15:00,
2013-01-08 04:20:00,19.9,15.1,29.93,East,90,3.0,4.0,81,0.00,,,0.00,meteohub,2013-01-08 10:20:00,
2013-01-08 04:25:00,19.6,14.7,29.93,East,90,3.0,3.0,81,0.00,,,0.00,meteohub,2013-01-08 10:25:00,
2013-01-08 04:30:00,19.4,14.5,29.93,East,90,2.0,3.0,81,0.00,,,0.00,meteohub,2013-01-08 10:30:00,
2013-01-08 04:35:00,19.4,14.5,29.93,SSW,203,3.0,3.0,81,0.00,,,0.00,meteohub,2013-01-08 10:35:00,
2013-01-08 04:40:00,19.2,13.3,29.93,East,90,2.0,3.0,77,0.00,,,0.00,meteohub,2013-01-08 10:40:00,
2013-01-08 04:45:00,19.0,13.1,29.93,East,90,3.0,3.0,77,0.00,,,0.00,meteohub,2013-01-08 10:45:00,
2013-01-08 04:50:00,18.7,12.7,29.93,East,90,2.0,3.0,77,0.00,,,0.00,meteohub,2013-01-08 10:50:00,
2013-01-08 04:55:00,18.5,12.6,29.93,East,90,3.0,3.0,77,0.00,,,0.00,meteohub,2013-01-08 10:55:00,
2013-01-08 05:00:00,18.5,12.6,29.93,SE,135,2.0,3.0,77,0.00,,,0.00,meteohub,2013-01-08 11:00:00,
2013-01-08 05:05:00,18.3,12.4,29.94,NE,45,3.0,4.0,77,0.00,,,0.00,meteohub,2013-01-08 11:05:00,
2013-01-08 05:10:00,18.3,12.4,29.93,SE,135,3.0,4.0,77,0.00,,,0.00,meteohub,2013-01-08 11:10:00,
2013-01-08 05:15:00,18.1,12.2,29.93,ESE,113,2.0,4.0,77,0.00,,,0.00,meteohub,2013-01-08 11:15:00,
2013-01-08 05:20:00,18.0,12.0,29.93,East,90,2.0,3.0,77,0.00,,,0.00,meteohub,2013-01-08 11:20:00,
2013-01-08 05:25:00,18.1,12.2,29.93,SE,135,2.0,3.0,77,0.00,,,0.00,meteohub,2013-01-08 11:25:00,
2013-01-08 05:30:00,18.1,12.2,29.93,East,90,3.0,3.0,77,0.00,,,0.00,meteohub,2013-01-08 11:30:00,
2013-01-08 05:35:00,17.8,11.8,29.93,East,90,3.0,3.0,77,0.00,,,0.00,meteohub,2013-01-08 11:35:00,
2013-01-08 05:40:00,18.0,12.0,29.93,SE,135,3.0,3.0,77,0.00,,,0.00,meteohub,2013-01-08 11:40:00,
2013-01-08 05:45:00,18.1,12.2,29.94,South,180,3.0,3.0,77,0.00,,,0.00,meteohub,2013-01-08 11:45:00,
2013-01-08 05:50:00,18.0,12.0,29.93,South,180,2.0,3.0,77,0.00,,,0.00,meteohub,2013-01-08 11:50:00,
2013-01-08 05:55:00,18.0,12.0,29.93,East,90,2.0,4.0,77,0.00,,,0.00,meteohub,2013-01-08 11:55:00,
2013-01-08 06:00:00,18.0,12.0,29.93,NE,45,2.0,4.0,77,0.00,,,0.00,meteohub,2013-01-08 12:00:00,
2013-01-08 06:05:00,18.0,12.0,29.93,NE,45,2.0,4.0,77,0.00,,,0.00,meteohub,2013-01-08 12:05:00,
2013-01-08 06:10:00,18.3,12.6,29.93,SE,135,3.0,3.0,78,0.00,,,0.00,meteohub,2013-01-08 12:10:00,
2013-01-08 06:15:00,18.3,12.6,29.93,East,90,3.0,3.0,78,0.00,,,0.00,meteohub,2013-01-08 12:15:00,
2013-01-08 06:20:00,18.1,12.2,29.93,East,90,4.0,4.0,77,0.00,,,0.00,meteohub,2013-01-08 12:20:00,
2013-01-08 06:26:00,18.1,12.2,29.93,ENE,68,3.0,4.0,77,0.00,,,0.00,meteohub,2013-01-08 12:26:00,
2013-01-08 06:31:00,18.1,12.2,29.93,SE,135,3.0,4.0,77,0.00,,,0.00,meteohub,2013-01-08 12:31:00,
2013-01-08 06:36:00,18.1,12.2,29.94,SE,135,2.0,4.0,77,0.00,,,0.00,meteohub,2013-01-08 12:36:00,
2013-01-08 06:41:00,18.0,12.0,29.94,NE,45,3.0,5.0,77,0.00,,,0.00,meteohub,2013-01-08 12:41:00,
2013-01-08 06:46:00,18.0,12.0,29.93,East,90,4.0,5.0,77,0.00,,,0.00,meteohub,2013-01-08 12:46:00,
2013-01-08 06:51:00,18.5,12.7,29.93,East,90,4.0,5.0,78,0.00,,,0.00,meteohub,2013-01-08 12:51:00,
2013-01-08 06:56:00,18.7,12.9,29.93,NE,45,4.0,5.0,78,0.00,,,0.00,meteohub,2013-01-08 12:56:00,
2013-01-08 07:01:00,18.9,13.1,29.94,East,90,3.0,5.0,78,0.00,,,0.00,meteohub,2013-01-08 13:01:00,
2013-01-08 07:06:00,19.0,13.3,29.94,NW,315,4.0,4.0,78,0.00,,,0.00,meteohub,2013-01-08 13:06:00,
2013-01-08 07:11:00,19.2,13.5,29.94,East,90,2.0,4.0,78,0.00,,,0.00,meteohub,2013-01-08 13:11:00,
2013-01-08 07:16:00,19.2,13.5,29.94,North,0,5.0,5.0,78,0.00,,,0.00,meteohub,2013-01-08 13:16:00,
2013-01-08 07:21:00,19.4,14.7,29.94,SE,135,4.0,5.0,82,0.00,,,0.00,meteohub,2013-01-08 13:21:00,
2013-01-08 07:26:00,19.6,14.9,29.94,South,180,4.0,6.0,82,0.00,,,0.00,meteohub,2013-01-08 13:26:00,
2013-01-08 07:31:00,19.6,14.9,29.94,East,90,3.0,6.0,82,0.00,,,0.00,meteohub,2013-01-08 13:31:00,
2013-01-08 07:36:00,19.6,14.9,29.94,ESE,113,5.0,6.0,82,0.00,,,0.00,meteohub,2013-01-08 13:36:00,
2013-01-08 07:41:00,19.6,14.9,29.94,SE,135,3.0,5.0,82,0.00,,,0.00,meteohub,2013-01-08 13:41:00,
2013-01-08 07:46:00,19.8,15.1,29.94,North,0,5.0,5.0,82,0.00,,,0.00,meteohub,2013-01-08 13:46:00,
2013-01-08 07:51:00,19.8,15.1,29.93,East,90,7.0,7.0,82,0.00,,,0.00,meteohub,2013-01-08 13:51:00,
2013-01-08 07:56:00,19.8,15.1,29.94,SE,135,4.0,7.0,82,0.00,,,0.00,meteohub,2013-01-08 13:56:00,
2013-01-08 08:01:00,19.8,15.1,29.94,NE,45,4.0,7.0,82,0.00,,,0.00,meteohub,2013-01-08 14:01:00,
2013-01-08 08:06:00,19.8,15.1,29.93,NE,45,4.0,7.0,82,0.00,,,0.00,meteohub,2013-01-08 14:06:00,
2013-01-08 08:11:00,19.9,15.1,29.94,South,180,4.0,5.0,81,0.00,,,0.00,meteohub,2013-01-08 14:11:00,
2013-01-08 08:16:00,19.9,15.1,29.94,SSE,158,5.0,5.0,81,0.00,,,0.00,meteohub,2013-01-08 14:16:00,
2013-01-08 08:21:00,20.1,15.3,29.94,SE,135,4.0,5.0,81,0.00,,,0.00,meteohub,2013-01-08 14:21:00,
2013-01-08 08:26:00,20.5,15.6,29.93,NE,45,4.0,5.0,81,0.00,,,0.00,meteohub,2013-01-08 14:26:00,
2013-01-08 08:31:00,21.2,16.3,29.93,ESE,113,4.0,5.0,81,0.00,,,0.00,meteohub,2013-01-08 14:31:00,
2013-01-08 08:36:00,23.0,17.8,29.93,NE,45,4.0,4.0,80,0.00,,,0.00,meteohub,2013-01-08 14:36:00,
2013-01-08 08:41:00,23.7,18.5,29.92,East,90,4.0,4.0,80,0.00,,,0.00,meteohub,2013-01-08 14:41:00,
2013-01-08 08:46:00,24.4,18.9,29.92,East,90,4.0,6.0,79,0.01,,,0.01,meteohub,2013-01-08 14:46:00,
2013-01-08 08:51:00,25.3,18.9,29.92,East,90,4.0,6.0,76,0.01,,,0.01,meteohub,2013-01-08 14:51:00,
2013-01-08 08:56:00,25.7,18.3,29.92,SE,135,4.0,6.0,73,0.01,,,0.01,meteohub,2013-01-08 14:56:00,
2013-01-08 09:01:00,26.1,18.0,29.92,South,180,5.0,6.0,71,0.01,,,0.01,meteohub,2013-01-08 15:01:00,
2013-01-08 09:06:00,26.8,18.0,29.92,East,90,4.0,7.0,69,0.01,,,0.01,meteohub,2013-01-08 15:06:00,
2013-01-08 09:11:00,27.9,18.3,29.92,SE,135,4.0,7.0,67,0.01,,,0.01,meteohub,2013-01-08 15:11:00,
2013-01-08 09:16:00,28.0,17.8,29.91,SE,135,4.0,6.0,65,0.01,,,0.01,meteohub,2013-01-08 15:16:00,
2013-01-08 09:21:00,27.3,16.3,29.92,SE,135,4.0,6.0,63,0.01,,,0.01,meteohub,2013-01-08 15:21:00,
2013-01-08 09:26:00,27.5,16.2,29.92,East,90,4.0,8.0,62,0.01,,,0.01,meteohub,2013-01-08 15:26:00,
2013-01-08 09:31:00,27.5,16.2,29.91,East,90,4.0,8.0,62,0.01,,,0.01,meteohub,2013-01-08 15:31:00,
2013-01-08 09:37:00,27.7,16.3,29.91,SE,135,4.0,4.0,62,0.01,,,0.01,meteohub,2013-01-08 15:37:00,
2013-01-08 09:42:00,28.2,16.9,29.91,East,90,4.0,5.0,62,0.01,,,0.01,meteohub,2013-01-08 15:42:00,
2013-01-08 09:47:00,29.3,19.0,29.91,NE,45,4.0,5.0,65,0.00,,,0.01,meteohub,2013-01-08 15:47:00,
2013-01-08 09:52:00,30.9,20.1,29.91,East,90,8.0,8.0,64,0.00,,,0.01,meteohub,2013-01-08 15:52:00,
2013-01-08 09:57:00,31.3,19.8,29.90,SE,135,5.0,8.0,62,0.00,,,0.01,meteohub,2013-01-08 15:57:00,
2013-01-08 10:02:00,31.6,19.8,29.90,SSE,158,4.0,8.0,61,0.00,,,0.01,meteohub,2013-01-08 16:02:00,
2013-01-08 10:07:00,32.5,20.1,29.90,South,180,3.0,8.0,60,0.00,,,0.01,meteohub,2013-01-08 16:07:00,
2013-01-08 10:12:00,33.4,20.3,29.89,ESE,113,5.0,6.0,58,0.00,,,0.01,meteohub,2013-01-08 16:12:00,
2013-01-08 10:17:00,32.4,18.5,29.89,SE,135,5.0,7.0,56,0.00,,,0.01,meteohub,2013-01-08 16:17:00,
2013-01-08 10:22:00,31.5,18.9,29.89,NE,45,4.0,7.0,59,0.00,,,0.01,meteohub,2013-01-08 16:22:00,
2013-01-08 10:27:00,30.9,18.3,29.88,East,90,5.0,6.0,59,0.00,,,0.01,meteohub,2013-01-08 16:27:00,
2013-01-08 10:32:00,30.0,18.5,29.88,East,90,5.0,6.0,62,0.00,,,0.01,meteohub,2013-01-08 16:32:00,
2013-01-08 10:37:00,29.1,18.1,29.88,SE,135,6.0,8.0,63,0.00,,,0.01,meteohub,2013-01-08 16:37:00,
2013-01-08 10:42:00,29.1,18.5,29.88,SE,135,6.0,8.0,64,0.00,,,0.01,meteohub,2013-01-08 16:42:00,
2013-01-08 10:47:00,28.9,18.3,29.88,ESE,113,4.0,8.0,64,0.00,,,0.01,meteohub,2013-01-08 16:47:00,
2013-01-08 10:52:00,29.3,18.7,29.87,East,90,7.0,8.0,64,0.00,,,0.01,meteohub,2013-01-08 16:52:00,
2013-01-08 10:57:00,29.7,19.0,29.87,SE,135,8.0,8.0,64,0.00,,,0.01,meteohub,2013-01-08 16:57:00,
2013-01-08 11:02:00,29.3,18.7,29.87,NE,45,5.0,8.0,64,0.00,,,0.01,meteohub,2013-01-08 17:02:00,
2013-01-08 11:07:00,29.1,18.5,29.87,SE,135,5.0,8.0,64,0.00,,,0.01,meteohub,2013-01-08 17:07:00,
2013-01-08 11:12:00,30.0,19.4,29.86,SSE,158,4.0,8.0,64,0.00,,,0.01,meteohub,2013-01-08 17:12:00,
2013-01-08 11:17:00,30.6,19.4,29.86,SW,225,4.0,6.0,63,0.00,,,0.01,meteohub,2013-01-08 17:17:00,
2013-01-08 11:22:00,31.5,20.3,29.86,SE,135,4.0,6.0,63,0.00,,,0.01,meteohub,2013-01-08 17:22:00,
2013-01-08 11:27:00,31.8,20.3,29.86,South,180,4.0,6.0,62,0.00,,,0.01,meteohub,2013-01-08 17:27:00,
2013-01-08 11:32:00,31.8,20.3,29.86,West,270,2.0,6.0,62,0.00,,,0.01,meteohub,2013-01-08 17:32:00,
2013-01-08 11:37:00,31.6,20.1,29.86,NW,315,3.0,5.0,62,0.00,,,0.01,meteohub,2013-01-08 17:37:00,
2013-01-08 11:42:00,31.3,19.8,29.86,North,0,4.0,5.0,62,0.00,,,0.01,meteohub,2013-01-08 17:42:00,
2013-01-08 11:47:00,31.1,19.6,29.86,SE,135,4.0,4.0,62,0.00,,,0.01,meteohub,2013-01-08 17:47:00,
2013-01-08 11:52:00,31.6,20.5,29.85,NE,45,3.0,4.0,63,0.00,,,0.01,meteohub,2013-01-08 17:52:00,
2013-01-08 11:57:00,31.6,20.5,29.84,East,90,4.0,4.0,63,0.00,,,0.01,meteohub,2013-01-08 17:57:00,
2013-01-08 12:02:00,31.5,20.3,29.84,SE,135,3.0,4.0,63,0.00,,,0.01,meteohub,2013-01-08 18:02:00,
2013-01-08 12:07:00,31.3,20.1,29.84,SE,135,5.0,6.0,63,0.00,,,0.01,meteohub,2013-01-08 18:07:00,
2013-01-08 12:12:00,31.5,20.3,29.83,SSE,158,2.0,6.0,63,0.00,,,0.01,meteohub,2013-01-08 18:12:00,
2013-01-08 12:17:00,31.8,20.7,29.83,NE,45,4.0,6.0,63,0.00,,,0.01,meteohub,2013-01-08 18:17:00,
2013-01-08 12:22:00,32.0,20.5,29.83,SSW,203,4.0,6.0,62,0.00,,,0.01,meteohub,2013-01-08 18:22:00,
2013-01-08 12:27:00,32.0,20.5,29.82,SSE,158,3.0,6.0,62,0.00,,,0.01,meteohub,2013-01-08 18:27:00,
2013-01-08 12:32:00,32.2,20.7,29.82,North,0,5.0,7.0,62,0.00,,,0.01,meteohub,2013-01-08 18:32:00,
2013-01-08 12:37:00,32.5,21.0,29.82,ESE,113,3.0,8.0,62,0.00,,,0.01,meteohub,2013-01-08 18:37:00,
2013-01-08 12:42:00,32.7,21.2,29.80,SE,135,9.0,9.0,62,0.00,,,0.01,meteohub,2013-01-08 18:42:00,
2013-01-08 12:47:00,32.4,20.5,29.80,SE,135,5.0,8.0,61,0.00,,,0.01,meteohub,2013-01-08 18:47:00,
2013-01-08 12:52:00,32.5,21.0,29.80,SE,135,4.0,9.0,62,0.00,,,0.01,meteohub,2013-01-08 18:52:00,
2013-01-08 12:58:00,32.5,21.0,29.80,NW,315,4.0,9.0,62,0.00,,,0.01,meteohub,2013-01-08 18:58:00,
2013-01-08 13:02:00,32.7,21.2,29.80,SE,135,4.0,8.0,62,0.00,,,0.01,meteohub,2013-01-08 19:02:00,
2013-01-08 13:08:00,32.5,20.7,29.80,South,180,6.0,8.0,61,0.00,,,0.01,meteohub,2013-01-08 19:08:00,
2013-01-08 13:13:00,32.5,20.7,29.79,East,90,4.0,8.0,61,0.00,,,0.01,meteohub,2013-01-08 19:13:00,
2013-01-08 13:18:00,32.5,21.0,29.79,SE,135,4.0,8.0,62,0.00,,,0.01,meteohub,2013-01-08 19:18:00,
2013-01-08 13:23:00,32.7,21.2,29.80,South,180,3.0,8.0,62,0.00,,,0.01,meteohub,2013-01-08 19:23:00,
2013-01-08 13:28:00,33.1,21.6,29.79,SE,135,2.0,8.0,62,0.00,,,0.01,meteohub,2013-01-08 19:28:00,
2013-01-08 13:33:00,33.6,21.9,29.79,SE,135,2.0,4.0,62,0.00,,,0.01,meteohub,2013-01-08 19:33:00,
2013-01-08 13:38:00,33.6,21.6,29.79,North,0,4.0,8.0,61,0.00,,,0.01,meteohub,2013-01-08 19:38:00,
2013-01-08 13:43:00,33.6,21.6,29.78,East,90,6.0,8.0,61,0.00,,,0.01,meteohub,2013-01-08 19:43:00,
2013-01-08 13:48:00,33.3,21.2,29.78,East,90,4.0,10.0,61,0.00,,,0.01,meteohub,2013-01-08 19:48:00,
2013-01-08 13:53:00,33.1,21.0,29.78,SE,135,7.0,10.0,61,0.00,,,0.01,meteohub,2013-01-08 19:53:00,
2013-01-08 13:58:00,32.9,21.4,29.78,SE,135,4.0,10.0,62,0.00,,,0.01,meteohub,2013-01-08 19:58:00,
2013-01-08 14:03:00,33.1,21.6,29.78,East,90,6.0,10.0,62,0.00,,,0.01,meteohub,2013-01-08 20:03:00,
2013-01-08 14:08:00,33.1,21.6,29.77,East,90,6.0,10.0,62,0.00,,,0.01,meteohub,2013-01-08 20:08:00,
2013-01-08 14:13:00,33.1,21.6,29.77,SE,135,5.0,6.0,62,0.00,,,0.01,meteohub,2013-01-08 20:13:00,
2013-01-08 14:18:00,34.0,21.9,29.77,NE,45,8.0,8.0,61,0.00,,,0.01,meteohub,2013-01-08 20:18:00,
2013-01-08 14:23:00,33.8,21.4,29.77,ENE,68,6.0,8.0,60,0.00,,,0.01,meteohub,2013-01-08 20:23:00,
2013-01-08 14:28:00,33.3,21.2,29.77,SSW,203,4.0,8.0,61,0.00,,,0.01,meteohub,2013-01-08 20:28:00,
2013-01-08 14:33:00,33.3,21.7,29.77,NW,315,7.0,10.0,62,0.00,,,0.01,meteohub,2013-01-08 20:33:00,
2013-01-08 14:38:00,32.9,21.4,29.77,East,90,6.0,10.0,62,0.00,,,0.01,meteohub,2013-01-08 20:38:00,
2013-01-08 14:43:00,32.7,21.6,29.77,East,90,11.0,11.0,63,0.00,,,0.01,meteohub,2013-01-08 20:43:00,
2013-01-08 14:48:00,32.9,22.1,29.77,SE,135,3.0,11.0,64,0.00,,,0.01,meteohub,2013-01-08 20:48:00,
2013-01-08 14:53:00,33.1,22.3,29.77,South,180,6.0,11.0,64,0.00,,,0.01,meteohub,2013-01-08 20:53:00,
2013-01-08 14:58:00,32.9,22.1,29.77,SW,225,2.0,11.0,64,0.00,,,0.01,meteohub,2013-01-08 20:58:00,
2013-01-08 15:03:00,32.9,22.5,29.77,NE,45,2.0,11.0,65,0.00,,,0.01,meteohub,2013-01-08 21:03:00,
2013-01-08 15:08:00,33.1,22.6,29.76,East,90,11.0,11.0,65,0.00,,,0.01,meteohub,2013-01-08 21:08:00,
2013-01-08 15:13:00,33.1,23.0,29.76,NW,315,4.0,11.0,66,0.00,,,0.01,meteohub,2013-01-08 21:13:00,
2013-01-08 15:18:00,33.1,23.0,29.76,North,0,17.0,17.0,66,0.00,,,0.01,meteohub,2013-01-08 21:18:00,
2013-01-08 15:23:00,33.1,23.0,29.76,ENE,68,4.0,17.0,66,0.00,,,0.01,meteohub,2013-01-08 21:23:00,
2013-01-08 15:28:00,33.1,23.4,29.76,North,0,4.0,17.0,67,0.00,,,0.01,meteohub,2013-01-08 21:28:00,
2013-01-08 15:33:00,33.1,23.4,29.76,SE,135,6.0,17.0,67,0.00,,,0.01,meteohub,2013-01-08 21:33:00,
2013-01-08 15:38:00,33.1,23.4,29.76,West,270,3.0,4.0,67,0.00,,,0.01,meteohub,2013-01-08 21:38:00,
2013-01-08 15:43:00,32.9,23.5,29.75,North,0,3.0,8.0,68,0.00,,,0.01,meteohub,2013-01-08 21:43:00,
2013-01-08 15:48:00,32.9,23.5,29.75,SW,225,3.0,8.0,68,0.00,,,0.01,meteohub,2013-01-08 21:48:00,
2013-01-08 15:53:00,32.9,23.9,29.76,South,180,4.0,8.0,69,0.00,,,0.01,meteohub,2013-01-08 21:53:00,
2013-01-08 15:58:00,32.7,24.1,29.75,North,0,3.0,8.0,70,0.00,,,0.01,meteohub,2013-01-08 21:58:00,
2013-01-08 16:03:00,32.7,24.1,29.76,NE,45,4.0,8.0,70,0.00,,,0.01,meteohub,2013-01-08 22:03:00,
2013-01-08 16:09:00,32.7,24.1,29.76,East,90,4.0,4.0,70,0.00,,,0.01,meteohub,2013-01-08 22:09:00,
2013-01-08 16:14:00,32.7,24.1,29.75,South,180,4.0,8.0,70,0.00,,,0.01,meteohub,2013-01-08 22:14:00,
2013-01-08 16:19:00,32.5,23.9,29.75,East,90,4.0,8.0,70,0.00,,,0.01,meteohub,2013-01-08 22:19:00,
2013-01-08 16:24:00,32.5,23.9,29.75,East,90,3.0,8.0,70,0.00,,,0.01,meteohub,2013-01-08 22:24:00,
2013-01-08 16:29:00,32.5,24.3,29.75,South,180,4.0,4.0,71,0.00,,,0.01,meteohub,2013-01-08 22:29:00,
2013-01-08 16:34:00,32.4,24.1,29.75,East,90,3.0,4.0,71,0.00,,,0.01,meteohub,2013-01-08 22:34:00,
2013-01-08 16:39:00,32.4,24.1,29.74,North,0,3.0,4.0,71,0.00,,,0.01,meteohub,2013-01-08 22:39:00,
2013-01-08 16:44:00,32.2,23.9,29.75,SE,135,3.0,4.0,71,0.00,,,0.01,meteohub,2013-01-08 22:44:00,
2013-01-08 16:49:00,32.2,23.9,29.75,West,270,4.0,4.0,71,0.00,,,0.01,meteohub,2013-01-08 22:49:00,
2013-01-08 16:54:00,32.2,24.3,29.75,South,180,3.0,4.0,72,0.00,,,0.01,meteohub,2013-01-08 22:54:00,
2013-01-08 16:59:00,32.2,24.3,29.75,SE,135,2.0,4.0,72,0.00,,,0.01,meteohub,2013-01-08 22:59:00,
2013-01-08 17:04:00,32.2,24.3,29.75,North,0,3.0,4.0,72,0.00,,,0.01,meteohub,2013-01-08 23:04:00,
2013-01-08 17:09:00,32.4,24.3,29.75,South,180,2.0,4.0,72,0.00,,,0.01,meteohub,2013-01-08 23:09:00,
2013-01-08 17:14:00,32.4,24.6,29.75,SE,135,2.0,4.0,73,0.00,,,0.01,meteohub,2013-01-08 23:14:00,
2013-01-08 17:19:00,32.2,24.4,29.76,NE,45,2.0,4.0,73,0.00,,,0.01,meteohub,2013-01-08 23:19:00,
2013-01-08 17:24:00,32.2,24.4,29.75,SW,225,2.0,4.0,73,0.00,,,0.01,meteohub,2013-01-08 23:24:00,
2013-01-08 17:29:00,32.4,24.6,29.75,East,90,6.0,6.0,73,0.00,,,0.01,meteohub,2013-01-08 23:29:00,
2013-01-08 17:34:00,32.4,24.6,29.75,SSW,203,2.0,6.0,73,0.00,,,0.01,meteohub,2013-01-08 23:34:00,
2013-01-08 17:39:00,32.4,24.6,29.75,South,180,3.0,6.0,73,0.00,,,0.01,meteohub,2013-01-08 23:39:00,
2013-01-08 17:44:00,32.4,24.6,29.75,NE,45,2.0,6.0,73,0.00,,,0.01,meteohub,2013-01-08 23:44:00,
2013-01-08 17:49:00,32.4,24.6,29.75,North,0,4.0,4.0,73,0.00,,,0.01,meteohub,2013-01-08 23:49:00,
2013-01-08 17:54:00,32.4,24.6,29.75,West,270,1.0,3.0,73,0.00,,,0.01,meteohub,2013-01-08 23:54:00,
2013-01-08 17:59:00,32.4,24.6,29.74,NNE,23,2.0,4.0,73,0.00,,,0.01,meteohub,2013-01-08 23:59:00,
2013-01-08 18:04:00,32.4,24.6,29.74,North,0,2.0,4.0,73,0.00,,,0.01,meteohub,2013-01-09 00:04:00,
2013-01-08 18:09:00,32.5,25.2,29.74,SW,225,3.0,5.0,74,0.00,,,0.00,meteohub,2013-01-09 00:09:00,
2013-01-08 18:14:00,32.5,25.2,29.74,NW,315,4.0,8.0,74,0.00,,,0.00,meteohub,2013-01-09 00:14:00,
2013-01-08 18:19:00,32.5,25.2,29.75,East,90,8.0,8.0,74,0.00,,,0.00,meteohub,2013-01-09 00:19:00,
2013-01-08 18:24:00,32.7,25.3,29.75,NW,315,4.0,8.0,74,0.00,,,0.00,meteohub,2013-01-09 00:24:00,
2013-01-08 18:29:00,32.9,25.5,29.75,SW,225,4.0,8.0,74,0.00,,,0.00,meteohub,2013-01-09 00:29:00,
2013-01-08 18:34:00,32.9,25.5,29.75,West,270,4.0,8.0,74,0.00,,,0.00,meteohub,2013-01-09 00:34:00,
2013-01-08 18:39:00,32.9,25.5,29.75,NW,315,5.0,8.0,74,0.00,,,0.00,meteohub,2013-01-09 00:39:00,
2013-01-08 18:44:00,32.9,25.5,29.76,NW,315,8.0,8.0,74,0.00,,,0.00,meteohub,2013-01-09 00:44:00,
2013-01-08 18:49:00,32.9,25.5,29.75,West,270,4.0,8.0,74,0.00,,,0.00,meteohub,2013-01-09 00:49:00,
2013-01-08 18:54:00,32.9,25.5,29.76,West,270,4.0,8.0,74,0.00,,,0.00,meteohub,2013-01-09 00:54:00,
2013-01-08 18:59:00,33.1,25.7,29.76,NW,315,8.0,10.0,74,0.00,,,0.00,meteohub,2013-01-09 00:59:00,
2013-01-08 19:04:00,33.1,25.3,29.75,South,180,5.0,10.0,73,0.00,,,0.00,meteohub,2013-01-09 01:04:00,
2013-01-08 19:09:00,32.9,25.2,29.76,West,270,4.0,10.0,73,0.00,,,0.00,meteohub,2013-01-09 01:09:00,
2013-01-08 19:14:00,32.9,25.2,29.76,NW,315,4.0,10.0,73,0.00,,,0.00,meteohub,2013-01-09 01:14:00,
2013-01-08 19:19:00,32.9,25.2,29.76,NW,315,4.0,8.0,73,0.00,,,0.00,meteohub,2013-01-09 01:19:00,
2013-01-08 19:24:00,32.9,25.2,29.77,NW,315,8.0,9.0,73,0.00,,,0.00,meteohub,2013-01-09 01:24:00,
2013-01-08 19:29:00,32.7,25.0,29.76,NW,315,7.0,9.0,73,0.00,,,0.00,meteohub,2013-01-09 01:29:00,
2013-01-08 19:34:00,32.7,25.0,29.77,NW,315,7.0,9.0,73,0.00,,,0.00,meteohub,2013-01-09 01:34:00,
2013-01-08 19:39:00,32.5,24.8,29.78,West,270,7.0,14.0,73,0.00,,,0.00,meteohub,2013-01-09 01:39:00,
2013-01-08 19:44:00,32.4,24.6,29.77,West,270,4.0,14.0,73,0.00,,,0.00,meteohub,2013-01-09 01:44:00,
2013-01-08 19:49:00,32.2,24.4,29.78,West,270,6.0,8.0,73,0.00,,,0.00,meteohub,2013-01-09 01:49:00,
2013-01-08 19:54:00,32.0,24.3,29.78,SW,225,4.0,8.0,73,0.00,,,0.00,meteohub,2013-01-09 01:54:00,
2013-01-08 19:59:00,31.8,24.4,29.78,SW,225,6.0,7.0,74,0.00,,,0.00,meteohub,2013-01-09 01:59:00,
2013-01-08 20:04:00,31.5,24.1,29.78,NW,315,4.0,7.0,74,0.00,,,0.00,meteohub,2013-01-09 02:04:00,
2013-01-08 20:09:00,31.3,23.9,29.78,West,270,4.0,8.0,74,0.00,,,0.00,meteohub,2013-01-09 02:09:00,
2013-01-08 20:14:00,31.1,23.7,29.78,West,270,4.0,8.0,74,0.00,,,0.00,meteohub,2013-01-09 02:14:00,
2013-01-08 20:19:00,30.7,23.4,29.79,SW,225,7.0,9.0,74,0.00,,,0.00,meteohub,2013-01-09 02:19:00,
2013-01-08 20:24:00,30.7,23.4,29.79,West,270,7.0,9.0,74,0.00,,,0.00,meteohub,2013-01-09 02:24:00,
2013-01-08 20:29:00,30.6,23.2,29.79,South,180,4.0,8.0,74,0.00,,,0.00,meteohub,2013-01-09 02:29:00,
2013-01-08 20:34:00,30.6,23.2,29.79,South,180,4.0,8.0,74,0.00,,,0.00,meteohub,2013-01-09 02:34:00,
2013-01-08 20:39:00,30.2,23.0,29.79,SW,225,8.0,8.0,74,0.00,,,0.00,meteohub,2013-01-09 02:39:00,
2013-01-08 20:45:00,30.2,23.0,29.79,NW,315,8.0,8.0,74,0.00,,,0.00,meteohub,2013-01-09 02:45:00,
2013-01-08 20:50:00,29.8,22.8,29.79,NW,315,8.0,8.0,75,0.00,,,0.00,meteohub,2013-01-09 02:50:00,
2013-01-08 20:55:00,29.8,22.8,29.79,NW,315,7.0,8.0,75,0.00,,,0.00,meteohub,2013-01-09 02:55:00,
2013-01-08 21:00:00,29.7,22.6,29.79,SW,225,6.0,8.0,75,0.00,,,0.00,meteohub,2013-01-09 03:00:00,
2013-01-08 21:05:00,29.7,22.6,29.80,NW,315,7.0,10.0,75,0.00,,,0.00,meteohub,2013-01-09 03:05:00,
2013-01-08 21:10:00,29.8,22.8,29.80,West,270,4.0,10.0,75,0.00,,,0.00,meteohub,2013-01-09 03:10:00,
2013-01-08 21:15:00,29.8,22.8,29.80,West,270,6.0,8.0,75,0.00,,,0.00,meteohub,2013-01-09 03:15:00,
2013-01-08 21:20:00,29.8,22.8,29.80,West,270,4.0,8.0,75,0.00,,,0.00,meteohub,2013-01-09 03:20:00,
2013-01-08 21:25:00,30.0,23.0,29.80,NW,315,9.0,9.0,75,0.00,,,0.00,meteohub,2013-01-09 03:25:00,
2013-01-08 21:30:00,30.0,23.0,29.80,NW,315,8.0,9.0,75,0.00,,,0.00,meteohub,2013-01-09 03:30:00,
2013-01-08 21:35:00,30.2,23.0,29.81,West,270,8.0,9.0,74,0.00,,,0.00,meteohub,2013-01-09 03:35:00,
2013-01-08 21:40:00,30.2,22.6,29.81,NW,315,8.0,9.0,73,0.00,,,0.00,meteohub,2013-01-09 03:40:00,
2013-01-08 21:45:00,30.2,22.6,29.81,NW,315,7.0,8.0,73,0.00,,,0.00,meteohub,2013-01-09 03:45:00,
2013-01-08 21:50:00,30.2,22.6,29.82,NW,315,5.0,10.0,73,0.00,,,0.00,meteohub,2013-01-09 03:50:00,
2013-01-08 21:55:00,30.2,22.6,29.82,NW,315,9.0,10.0,73,0.00,,,0.00,meteohub,2013-01-09 03:55:00,
2013-01-08 22:00:00,30.2,22.6,29.82,SW,225,9.0,10.0,73,0.00,,,0.00,meteohub,2013-01-09 04:00:00,
2013-01-08 22:05:00,30.2,22.6,29.83,SW,225,9.0,9.0,73,0.00,,,0.00,meteohub,2013-01-09 04:05:00,
2013-01-08 22:10:00,30.2,22.6,29.83,West,270,3.0,9.0,73,0.00,,,0.00,meteohub,2013-01-09 04:10:00,
2013-01-08 22:15:00,30.2,22.6,29.83,West,270,3.0,9.0,73,0.00,,,0.00,meteohub,2013-01-09 04:15:00,
2013-01-08 22:20:00,30.4,22.8,29.83,North,0,6.0,9.0,73,0.00,,,0.00,meteohub,2013-01-09 04:20:00,
2013-01-08 22:25:00,30.6,23.0,29.84,West,270,3.0,8.0,73,0.00,,,0.00,meteohub,2013-01-09 04:25:00,
2013-01-08 22:30:00,30.6,23.0,29.84,SW,225,7.0,8.0,73,0.00,,,0.00,meteohub,2013-01-09 04:30:00,
2013-01-08 22:35:00,30.7,23.4,29.84,SW,225,4.0,8.0,74,0.00,,,0.00,meteohub,2013-01-09 04:35:00,
2013-01-08 22:40:00,30.7,23.4,29.85,West,270,4.0,7.0,74,0.00,,,0.00,meteohub,2013-01-09 04:40:00,
2013-01-08 22:45:00,30.7,23.4,29.85,NW,315,5.0,7.0,74,0.00,,,0.00,meteohub,2013-01-09 04:45:00,
2013-01-08 22:50:00,30.7,23.4,29.85,SW,225,5.0,5.0,74,0.00,,,0.00,meteohub,2013-01-09 04:50:00,
2013-01-08 22:55:00,30.6,23.2,29.86,NW,315,6.0,6.0,74,0.00,,,0.00,meteohub,2013-01-09 04:55:00,
2013-01-08 23:02:00,30.6,23.2,29.86,West,270,6.0,9.0,74,0.00,,,0.00,meteohub,2013-01-09 05:02:00,
2013-01-08 23:03:00,30.6,23.2,29.86,West,270,5.0,9.0,74,0.00,,,0.00,meteohub,2013-01-09 05:03:00,
2013-01-08 23:08:00,30.6,23.2,29.86,West,270,5.0,9.0,74,0.00,,,0.00,meteohub,2013-01-09 05:08:00,
2013-01-08 23:13:00,30.4,23.2,29.86,West,270,3.0,8.0,74,0.00,,,0.00,meteohub,2013-01-09 05:13:00,
2013-01-08 23:18:00,30.4,23.2,29.86,West,270,3.0,8.0,74,0.00,,,0.00,meteohub,2013-01-09 05:18:00,
2013-01-08 23:23:00,30.2,23.0,29.86,NW,315,4.0,8.0,74,0.00,,,0.00,meteohub,2013-01-09 05:23:00,
2013-01-08 23:28:00,30.0,23.0,29.87,NW,315,4.0,6.0,75,0.00,,,0.00,meteohub,2013-01-09 05:28:00,
2013-01-08 23:33:00,30.0,23.0,29.87,NW,315,5.0,6.0,75,0.00,,,0.00,meteohub,2013-01-09 05:33:00,
2013-01-08 23:38:00,29.8,22.8,29.88,West,270,4.0,6.0,75,0.00,,,0.00,meteohub,2013-01-09 05:38:00,
2013-01-08 23:43:00,29.8,22.8,29.88,WNW,293,3.0,6.0,75,0.00,,,0.00,meteohub,2013-01-09 05:43:00,
2013-01-08 23:48:00,29.7,22.6,29.88,West,270,4.0,7.0,75,0.00,,,0.00,meteohub,2013-01-09 05:48:00,
2013-01-08 23:53:00,29.7,22.6,29.88,NW,315,3.0,7.0,75,0.00,,,0.00,meteohub,2013-01-09 05:53:00,
2013-01-08 23:58:00,29.5,22.5,29.89,West,270,3.0,7.0,75,0.00,,,0.00,meteohub,2013-01-09 05:58:00,